sensor_id;sensor_type;location;lat;lon;timestamp;P1;durP1;ratioP1;P2;durP2;ratioP2
12129;SDS011;6128;59.340;18.040;2023-04-26T00:01:34;16.27;;;7.87;;
12129;SDS011;6128;59.340;18.040;2023-04-26T00:04:04;21.20;;;9.27;;
12129;SDS011;6128;59.340;18.040;2023-04-26T00:06:32;25.60;;;9.63;;
12129;SDS011;6128;59.340;18.040;2023-04-26T00:09:01;11.27;;;9.03;;
12129;SDS011;6128;59.340;18.040;2023-04-26T00:11:28;17.03;;;9.27;;
12129;SDS011;6128;59.340;18.040;2023-04-26T00:13:56;12.57;;;9.40;;
12129;SDS011;6128;59.340;18.040;2023-04-26T00:16:23;13.63;;;9.23;;
12129;SDS011;6128;59.340;18.040;2023-04-26T00:18:51;16.87;;;9.97;;
12129;SDS011;6128;59.340;18.040;2023-04-26T00:21:19;14.53;;;10.17;;
12129;SDS011;6128;59.340;18.040;2023-04-26T00:23:46;15.07;;;10.10;;
12129;SDS011;6128;59.340;18.040;2023-04-26T00:26:13;19.77;;;10.90;;
12129;SDS011;6128;59.340;18.040;2023-04-26T00:28:41;32.80;;;11.70;;
12129;SDS011;6128;59.340;18.040;2023-04-26T00:31:12;19.67;;;10.73;;
12129;SDS011;6128;59.340;18.040;2023-04-26T00:33:40;13.30;;;9.97;;
12129;SDS011;6128;59.340;18.040;2023-04-26T00:36:07;14.10;;;10.30;;
12129;SDS011;6128;59.340;18.040;2023-04-26T00:38:35;27.37;;;11.17;;
12129;SDS011;6128;59.340;18.040;2023-04-26T00:41:02;29.73;;;11.70;;
12129;SDS011;6128;59.340;18.040;2023-04-26T00:43:29;20.50;;;11.90;;
12129;SDS011;6128;59.340;18.040;2023-04-26T00:45:56;20.53;;;12.03;;
12129;SDS011;6128;59.340;18.040;2023-04-26T00:48:24;14.23;;;10.27;;
12129;SDS011;6128;59.340;18.040;2023-04-26T00:50:52;19.13;;;11.17;;
12129;SDS011;6128;59.340;18.040;2023-04-26T00:53:19;22.70;;;12.53;;
12129;SDS011;6128;59.340;18.040;2023-04-26T00:55:48;16.13;;;11.43;;
12129;SDS011;6128;59.340;18.040;2023-04-26T00:58:16;15.83;;;11.63;;
12129;SDS011;6128;59.340;18.040;2023-04-26T01:00:43;14.43;;;11.00;;
12129;SDS011;6128;59.340;18.040;2023-04-26T01:03:10;16.53;;;11.67;;
12129;SDS011;6128;59.340;18.040;2023-04-26T01:05:37;14.47;;;11.43;;
12129;SDS011;6128;59.340;18.040;2023-04-26T01:08:05;14.60;;;10.83;;
12129;SDS011;6128;59.340;18.040;2023-04-26T01:10:32;17.83;;;11.63;;
12129;SDS011;6128;59.340;18.040;2023-04-26T01:13:02;13.73;;;11.53;;
12129;SDS011;6128;59.340;18.040;2023-04-26T01:15:29;14.93;;;10.80;;
12129;SDS011;6128;59.340;18.040;2023-04-26T01:17:57;17.03;;;11.20;;
12129;SDS011;6128;59.340;18.040;2023-04-26T01:20:24;14.67;;;11.90;;
12129;SDS011;6128;59.340;18.040;2023-04-26T01:22:53;16.10;;;11.57;;
12129;SDS011;6128;59.340;18.040;2023-04-26T01:25:20;15.57;;;11.77;;
12129;SDS011;6128;59.340;18.040;2023-04-26T01:27:47;14.97;;;10.87;;
12129;SDS011;6128;59.340;18.040;2023-04-26T01:30:16;14.07;;;11.53;;
12129;SDS011;6128;59.340;18.040;2023-04-26T01:32:43;13.67;;;10.80;;
12129;SDS011;6128;59.340;18.040;2023-04-26T01:35:10;15.77;;;11.37;;
12129;SDS011;6128;59.340;18.040;2023-04-26T01:37:37;15.10;;;11.30;;
12129;SDS011;6128;59.340;18.040;2023-04-26T01:40:06;15.40;;;11.60;;
12129;SDS011;6128;59.340;18.040;2023-04-26T01:42:35;17.50;;;12.13;;
12129;SDS011;6128;59.340;18.040;2023-04-26T01:45:02;18.10;;;12.40;;
12129;SDS011;6128;59.340;18.040;2023-04-26T01:47:30;14.20;;;11.47;;
12129;SDS011;6128;59.340;18.040;2023-04-26T01:49:57;18.43;;;12.47;;
12129;SDS011;6128;59.340;18.040;2023-04-26T01:52:24;18.57;;;12.80;;
12129;SDS011;6128;59.340;18.040;2023-04-26T01:54:51;18.00;;;12.40;;
12129;SDS011;6128;59.340;18.040;2023-04-26T01:57:26;17.87;;;12.20;;
12129;SDS011;6128;59.340;18.040;2023-04-26T01:59:53;15.73;;;12.10;;
12129;SDS011;6128;59.340;18.040;2023-04-26T02:02:20;14.77;;;12.13;;
12129;SDS011;6128;59.340;18.040;2023-04-26T02:04:48;15.00;;;12.93;;
12129;SDS011;6128;59.340;18.040;2023-04-26T02:07:15;16.97;;;13.23;;
12129;SDS011;6128;59.340;18.040;2023-04-26T02:09:42;19.57;;;14.43;;
12129;SDS011;6128;59.340;18.040;2023-04-26T02:12:10;19.77;;;14.17;;
12129;SDS011;6128;59.340;18.040;2023-04-26T02:14:39;19.80;;;15.33;;
12129;SDS011;6128;59.340;18.040;2023-04-26T02:17:06;17.30;;;13.70;;
12129;SDS011;6128;59.340;18.040;2023-04-26T02:19:35;18.07;;;14.60;;
12129;SDS011;6128;59.340;18.040;2023-04-26T02:22:03;18.30;;;13.43;;
12129;SDS011;6128;59.340;18.040;2023-04-26T02:24:32;18.27;;;14.10;;
12129;SDS011;6128;59.340;18.040;2023-04-26T02:26:59;16.87;;;13.17;;
12129;SDS011;6128;59.340;18.040;2023-04-26T02:29:28;19.60;;;14.37;;
12129;SDS011;6128;59.340;18.040;2023-04-26T02:31:57;15.70;;;13.77;;
12129;SDS011;6128;59.340;18.040;2023-04-26T02:34:24;18.00;;;14.07;;
12129;SDS011;6128;59.340;18.040;2023-04-26T02:36:51;15.27;;;12.87;;
12129;SDS011;6128;59.340;18.040;2023-04-26T02:39:18;14.07;;;12.33;;
12129;SDS011;6128;59.340;18.040;2023-04-26T02:41:46;14.00;;;11.50;;
12129;SDS011;6128;59.340;18.040;2023-04-26T02:44:28;14.23;;;11.37;;
12129;SDS011;6128;59.340;18.040;2023-04-26T02:46:57;12.73;;;11.43;;
12129;SDS011;6128;59.340;18.040;2023-04-26T02:49:24;13.93;;;10.93;;
12129;SDS011;6128;59.340;18.040;2023-04-26T02:51:52;12.37;;;9.80;;
12129;SDS011;6128;59.340;18.040;2023-04-26T02:54:19;13.27;;;10.80;;
12129;SDS011;6128;59.340;18.040;2023-04-26T02:56:46;13.07;;;10.90;;
12129;SDS011;6128;59.340;18.040;2023-04-26T02:59:13;11.83;;;10.43;;
12129;SDS011;6128;59.340;18.040;2023-04-26T03:01:40;11.23;;;10.10;;
12129;SDS011;6128;59.340;18.040;2023-04-26T03:04:09;12.50;;;11.23;;
12129;SDS011;6128;59.340;18.040;2023-04-26T03:06:36;11.20;;;9.97;;
12129;SDS011;6128;59.340;18.040;2023-04-26T03:09:03;12.87;;;9.70;;
12129;SDS011;6128;59.340;18.040;2023-04-26T03:11:30;12.97;;;10.20;;
12129;SDS011;6128;59.340;18.040;2023-04-26T03:13:57;10.63;;;9.33;;
12129;SDS011;6128;59.340;18.040;2023-04-26T03:16:26;10.60;;;9.50;;
12129;SDS011;6128;59.340;18.040;2023-04-26T03:18:53;11.43;;;10.33;;
12129;SDS011;6128;59.340;18.040;2023-04-26T03:21:21;10.70;;;9.63;;
12129;SDS011;6128;59.340;18.040;2023-04-26T03:23:49;10.90;;;9.80;;
12129;SDS011;6128;59.340;18.040;2023-04-26T03:26:16;9.87;;;8.87;;
12129;SDS011;6128;59.340;18.040;2023-04-26T03:28:44;11.60;;;8.90;;
12129;SDS011;6128;59.340;18.040;2023-04-26T03:31:11;10.87;;;8.60;;
12129;SDS011;6128;59.340;18.040;2023-04-26T03:33:38;10.93;;;9.23;;
12129;SDS011;6128;59.340;18.040;2023-04-26T03:36:05;9.73;;;8.37;;
12129;SDS011;6128;59.340;18.040;2023-04-26T03:38:34;8.47;;;7.63;;
12129;SDS011;6128;59.340;18.040;2023-04-26T03:41:01;8.87;;;7.93;;
12129;SDS011;6128;59.340;18.040;2023-04-26T03:43:28;9.03;;;8.17;;
12129;SDS011;6128;59.340;18.040;2023-04-26T03:45:56;9.57;;;7.70;;
12129;SDS011;6128;59.340;18.040;2023-04-26T03:48:23;9.83;;;8.00;;
12129;SDS011;6128;59.340;18.040;2023-04-26T03:50:50;9.97;;;8.33;;
12129;SDS011;6128;59.340;18.040;2023-04-26T03:53:17;12.97;;;7.03;;
12129;SDS011;6128;59.340;18.040;2023-04-26T03:55:46;9.03;;;6.93;;
12129;SDS011;6128;59.340;18.040;2023-04-26T03:58:14;10.27;;;7.43;;
12129;SDS011;6128;59.340;18.040;2023-04-26T04:00:41;7.87;;;7.00;;
12129;SDS011;6128;59.340;18.040;2023-04-26T04:03:08;7.23;;;6.53;;
12129;SDS011;6128;59.340;18.040;2023-04-26T04:05:35;8.77;;;6.83;;
12129;SDS011;6128;59.340;18.040;2023-04-26T04:08:02;7.00;;;6.07;;
12129;SDS011;6128;59.340;18.040;2023-04-26T04:10:30;11.13;;;6.83;;
12129;SDS011;6128;59.340;18.040;2023-04-26T04:12:58;7.93;;;6.60;;
12129;SDS011;6128;59.340;18.040;2023-04-26T04:15:26;8.07;;;5.47;;
12129;SDS011;6128;59.340;18.040;2023-04-26T04:17:53;7.53;;;6.07;;
12129;SDS011;6128;59.340;18.040;2023-04-26T04:20:20;9.20;;;6.00;;
12129;SDS011;6128;59.340;18.040;2023-04-26T04:22:47;6.83;;;6.00;;
12129;SDS011;6128;59.340;18.040;2023-04-26T04:25:15;7.13;;;5.33;;
12129;SDS011;6128;59.340;18.040;2023-04-26T04:27:45;8.57;;;5.53;;
12129;SDS011;6128;59.340;18.040;2023-04-26T04:30:13;6.43;;;5.00;;
12129;SDS011;6128;59.340;18.040;2023-04-26T04:32:41;6.67;;;5.23;;
12129;SDS011;6128;59.340;18.040;2023-04-26T04:35:11;6.93;;;4.90;;
12129;SDS011;6128;59.340;18.040;2023-04-26T04:37:38;5.50;;;4.50;;
12129;SDS011;6128;59.340;18.040;2023-04-26T04:40:06;7.33;;;4.97;;
12129;SDS011;6128;59.340;18.040;2023-04-26T04:42:35;5.37;;;3.90;;
12129;SDS011;6128;59.340;18.040;2023-04-26T04:45:02;6.10;;;4.37;;
12129;SDS011;6128;59.340;18.040;2023-04-26T04:47:31;4.87;;;3.57;;
12129;SDS011;6128;59.340;18.040;2023-04-26T04:50:04;3.70;;;3.00;;
12129;SDS011;6128;59.340;18.040;2023-04-26T04:52:43;3.73;;;2.90;;
12129;SDS011;6128;59.340;18.040;2023-04-26T04:55:10;8.87;;;3.43;;
12129;SDS011;6128;59.340;18.040;2023-04-26T04:57:37;4.27;;;3.30;;
12129;SDS011;6128;59.340;18.040;2023-04-26T05:00:13;3.63;;;2.80;;
12129;SDS011;6128;59.340;18.040;2023-04-26T05:02:42;5.40;;;3.37;;
12129;SDS011;6128;59.340;18.040;2023-04-26T05:05:10;5.57;;;2.60;;
12129;SDS011;6128;59.340;18.040;2023-04-26T05:07:38;5.73;;;3.07;;
12129;SDS011;6128;59.340;18.040;2023-04-26T05:10:05;7.87;;;2.40;;
12129;SDS011;6128;59.340;18.040;2023-04-26T05:12:33;5.73;;;2.30;;
12129;SDS011;6128;59.340;18.040;2023-04-26T05:15:00;5.17;;;1.90;;
12129;SDS011;6128;59.340;18.040;2023-04-26T05:17:28;3.53;;;1.80;;
12129;SDS011;6128;59.340;18.040;2023-04-26T05:19:57;9.00;;;2.30;;
12129;SDS011;6128;59.340;18.040;2023-04-26T05:22:28;7.37;;;2.10;;
12129;SDS011;6128;59.340;18.040;2023-04-26T05:24:55;4.40;;;1.93;;
12129;SDS011;6128;59.340;18.040;2023-04-26T05:27:22;3.93;;;1.90;;
12129;SDS011;6128;59.340;18.040;2023-04-26T05:29:49;3.73;;;1.80;;
12129;SDS011;6128;59.340;18.040;2023-04-26T05:32:16;3.43;;;1.57;;
12129;SDS011;6128;59.340;18.040;2023-04-26T05:34:43;3.83;;;1.50;;
12129;SDS011;6128;59.340;18.040;2023-04-26T05:37:12;4.57;;;1.47;;
12129;SDS011;6128;59.340;18.040;2023-04-26T05:39:39;1.53;;;1.43;;
12129;SDS011;6128;59.340;18.040;2023-04-26T05:42:06;3.23;;;1.40;;
12129;SDS011;6128;59.340;18.040;2023-04-26T05:44:33;11.13;;;2.23;;
12129;SDS011;6128;59.340;18.040;2023-04-26T05:47:01;7.13;;;1.73;;
12129;SDS011;6128;59.340;18.040;2023-04-26T05:49:28;6.53;;;1.13;;
12129;SDS011;6128;59.340;18.040;2023-04-26T05:51:57;3.40;;;1.00;;
12129;SDS011;6128;59.340;18.040;2023-04-26T05:54:26;2.97;;;1.00;;
12129;SDS011;6128;59.340;18.040;2023-04-26T05:56:53;4.23;;;1.13;;
12129;SDS011;6128;59.340;18.040;2023-04-26T05:59:20;4.70;;;1.40;;
12129;SDS011;6128;59.340;18.040;2023-04-26T06:01:47;2.17;;;0.70;;
12129;SDS011;6128;59.340;18.040;2023-04-26T06:04:14;1.87;;;0.60;;
12129;SDS011;6128;59.340;18.040;2023-04-26T06:06:41;8.97;;;1.73;;
12129;SDS011;6128;59.340;18.040;2023-04-26T06:09:08;5.27;;;0.90;;
12129;SDS011;6128;59.340;18.040;2023-04-26T06:11:37;7.23;;;0.97;;
12129;SDS011;6128;59.340;18.040;2023-04-26T06:14:04;1.43;;;0.60;;
12129;SDS011;6128;59.340;18.040;2023-04-26T06:16:31;0.97;;;0.40;;
12129;SDS011;6128;59.340;18.040;2023-04-26T06:18:58;0.73;;;0.30;;
12129;SDS011;6128;59.340;18.040;2023-04-26T06:21:25;6.20;;;1.00;;
12129;SDS011;6128;59.340;18.040;2023-04-26T06:23:52;3.50;;;0.60;;
12129;SDS011;6128;59.340;18.040;2023-04-26T06:26:19;4.70;;;0.70;;
12129;SDS011;6128;59.340;18.040;2023-04-26T06:28:48;0.70;;;0.63;;
12129;SDS011;6128;59.340;18.040;2023-04-26T06:31:15;0.97;;;0.50;;
12129;SDS011;6128;59.340;18.040;2023-04-26T06:33:42;2.50;;;1.00;;
12129;SDS011;6128;59.340;18.040;2023-04-26T06:36:10;1.57;;;0.30;;
12129;SDS011;6128;59.340;18.040;2023-04-26T06:38:38;1.30;;;0.50;;
12129;SDS011;6128;59.340;18.040;2023-04-26T06:41:05;2.53;;;0.30;;
12129;SDS011;6128;59.340;18.040;2023-04-26T06:43:33;3.20;;;0.60;;
12129;SDS011;6128;59.340;18.040;2023-04-26T06:46:01;3.00;;;0.43;;
12129;SDS011;6128;59.340;18.040;2023-04-26T06:48:28;4.07;;;0.50;;
12129;SDS011;6128;59.340;18.040;2023-04-26T06:50:55;0.40;;;0.30;;
12129;SDS011;6128;59.340;18.040;2023-04-26T06:53:22;2.73;;;0.60;;
12129;SDS011;6128;59.340;18.040;2023-04-26T06:55:50;0.33;;;0.30;;
12129;SDS011;6128;59.340;18.040;2023-04-26T06:58:18;2.07;;;0.40;;
12129;SDS011;6128;59.340;18.040;2023-04-26T07:00:45;2.43;;;0.23;;
12129;SDS011;6128;59.340;18.040;2023-04-26T07:03:13;25.47;;;2.67;;
12129;SDS011;6128;59.340;18.040;2023-04-26T07:05:41;7.37;;;1.00;;
12129;SDS011;6128;59.340;18.040;2023-04-26T07:08:08;1.43;;;0.40;;
12129;SDS011;6128;59.340;18.040;2023-04-26T07:10:36;12.37;;;1.53;;
12129;SDS011;6128;59.340;18.040;2023-04-26T07:13:04;0.50;;;0.23;;
12129;SDS011;6128;59.340;18.040;2023-04-26T07:15:31;0.67;;;0.30;;
12129;SDS011;6128;59.340;18.040;2023-04-26T07:18:00;1.37;;;0.20;;
12129;SDS011;6128;59.340;18.040;2023-04-26T07:20:28;1.87;;;0.20;;
12129;SDS011;6128;59.340;18.040;2023-04-26T07:22:55;0.77;;;0.10;;
12129;SDS011;6128;59.340;18.040;2023-04-26T07:25:22;0.57;;;0.20;;
12129;SDS011;6128;59.340;18.040;2023-04-26T07:27:49;2.70;;;0.87;;
12129;SDS011;6128;59.340;18.040;2023-04-26T07:30:16;0.20;;;0.10;;
12129;SDS011;6128;59.340;18.040;2023-04-26T07:32:44;2.07;;;0.30;;
12129;SDS011;6128;59.340;18.040;2023-04-26T07:35:11;1.43;;;0.30;;
12129;SDS011;6128;59.340;18.040;2023-04-26T07:37:42;2.90;;;0.57;;
12129;SDS011;6128;59.340;18.040;2023-04-26T07:40:10;0.80;;;0.57;;
12129;SDS011;6128;59.340;18.040;2023-04-26T07:42:38;2.97;;;0.50;;
12129;SDS011;6128;59.340;18.040;2023-04-26T07:45:05;1.80;;;0.20;;
12129;SDS011;6128;59.340;18.040;2023-04-26T07:47:33;4.57;;;1.10;;
12129;SDS011;6128;59.340;18.040;2023-04-26T07:50:00;0.93;;;0.17;;
12129;SDS011;6128;59.340;18.040;2023-04-26T07:52:28;3.20;;;0.50;;
12129;SDS011;6128;59.340;18.040;2023-04-26T07:54:56;2.57;;;0.50;;
12129;SDS011;6128;59.340;18.040;2023-04-26T07:57:24;7.20;;;0.63;;
12129;SDS011;6128;59.340;18.040;2023-04-26T07:59:51;2.60;;;0.30;;
12129;SDS011;6128;59.340;18.040;2023-04-26T08:02:18;3.27;;;0.20;;
12129;SDS011;6128;59.340;18.040;2023-04-26T08:04:48;0.83;;;0.20;;
12129;SDS011;6128;59.340;18.040;2023-04-26T08:07:17;0.10;;;0.10;;
12129;SDS011;6128;59.340;18.040;2023-04-26T08:09:45;0.10;;;0.00;;
12129;SDS011;6128;59.340;18.040;2023-04-26T08:12:14;0.10;;;0.10;;
12129;SDS011;6128;59.340;18.040;2023-04-26T08:14:41;1.50;;;0.20;;
12129;SDS011;6128;59.340;18.040;2023-04-26T08:17:08;0.63;;;0.10;;
12129;SDS011;6128;59.340;18.040;2023-04-26T08:19:36;0.30;;;0.10;;
12129;SDS011;6128;59.340;18.040;2023-04-26T08:22:03;1.30;;;0.30;;
12129;SDS011;6128;59.340;18.040;2023-04-26T08:24:31;4.30;;;0.50;;
12129;SDS011;6128;59.340;18.040;2023-04-26T08:26:58;6.43;;;0.50;;
12129;SDS011;6128;59.340;18.040;2023-04-26T08:29:27;4.83;;;0.50;;
12129;SDS011;6128;59.340;18.040;2023-04-26T08:31:55;1.67;;;0.20;;
12129;SDS011;6128;59.340;18.040;2023-04-26T08:34:22;6.17;;;0.50;;
12129;SDS011;6128;59.340;18.040;2023-04-26T08:36:49;6.20;;;0.70;;
12129;SDS011;6128;59.340;18.040;2023-04-26T08:39:16;1.57;;;0.40;;
12129;SDS011;6128;59.340;18.040;2023-04-26T08:41:44;1.23;;;0.50;;
12129;SDS011;6128;59.340;18.040;2023-04-26T08:44:22;11.43;;;1.07;;
12129;SDS011;6128;59.340;18.040;2023-04-26T08:46:54;1.77;;;0.30;;
12129;SDS011;6128;59.340;18.040;2023-04-26T08:49:29;7.03;;;1.00;;
12129;SDS011;6128;59.340;18.040;2023-04-26T08:52:02;1.97;;;0.10;;
12129;SDS011;6128;59.340;18.040;2023-04-26T08:54:33;1.67;;;0.30;;
12129;SDS011;6128;59.340;18.040;2023-04-26T08:57:01;6.23;;;0.93;;
12129;SDS011;6128;59.340;18.040;2023-04-26T08:59:29;4.97;;;0.77;;
12129;SDS011;6128;59.340;18.040;2023-04-26T09:01:58;7.73;;;1.03;;
12129;SDS011;6128;59.340;18.040;2023-04-26T09:04:28;0.37;;;0.10;;
12129;SDS011;6128;59.340;18.040;2023-04-26T09:06:57;4.83;;;0.37;;
12129;SDS011;6128;59.340;18.040;2023-04-26T09:09:26;3.13;;;0.67;;
12129;SDS011;6128;59.340;18.040;2023-04-26T09:11:54;6.23;;;0.30;;
12129;SDS011;6128;59.340;18.040;2023-04-26T09:14:22;0.83;;;0.10;;
12129;SDS011;6128;59.340;18.040;2023-04-26T09:16:49;0.50;;;0.27;;
12129;SDS011;6128;59.340;18.040;2023-04-26T09:19:18;0.10;;;0.10;;
12129;SDS011;6128;59.340;18.040;2023-04-26T09:22:01;4.33;;;0.47;;
12129;SDS011;6128;59.340;18.040;2023-04-26T09:24:28;3.87;;;0.30;;
12129;SDS011;6128;59.340;18.040;2023-04-26T09:27:14;2.50;;;0.40;;
12129;SDS011;6128;59.340;18.040;2023-04-26T09:29:55;1.53;;;0.20;;
12129;SDS011;6128;59.340;18.040;2023-04-26T09:32:23;0.50;;;0.10;;
12129;SDS011;6128;59.340;18.040;2023-04-26T09:34:52;4.53;;;0.63;;
12129;SDS011;6128;59.340;18.040;2023-04-26T09:37:19;4.73;;;0.50;;
12129;SDS011;6128;59.340;18.040;2023-04-26T09:39:46;2.43;;;0.30;;
12129;SDS011;6128;59.340;18.040;2023-04-26T09:42:15;6.43;;;1.07;;
12129;SDS011;6128;59.340;18.040;2023-04-26T09:44:44;4.57;;;0.30;;
12129;SDS011;6128;59.340;18.040;2023-04-26T09:47:11;4.33;;;0.70;;
12129;SDS011;6128;59.340;18.040;2023-04-26T09:49:44;2.23;;;0.30;;
12129;SDS011;6128;59.340;18.040;2023-04-26T09:52:16;1.67;;;0.10;;
12129;SDS011;6128;59.340;18.040;2023-04-26T09:54:45;4.67;;;0.30;;
12129;SDS011;6128;59.340;18.040;2023-04-26T09:57:14;1.37;;;0.37;;
12129;SDS011;6128;59.340;18.040;2023-04-26T09:59:44;0.47;;;0.10;;
12129;SDS011;6128;59.340;18.040;2023-04-26T10:02:15;3.87;;;0.57;;
12129;SDS011;6128;59.340;18.040;2023-04-26T10:04:44;2.90;;;0.63;;
12129;SDS011;6128;59.340;18.040;2023-04-26T10:07:13;2.70;;;0.20;;
12129;SDS011;6128;59.340;18.040;2023-04-26T10:09:43;1.13;;;0.20;;
12129;SDS011;6128;59.340;18.040;2023-04-26T10:12:11;3.83;;;0.40;;
12129;SDS011;6128;59.340;18.040;2023-04-26T10:14:40;1.37;;;0.37;;
12129;SDS011;6128;59.340;18.040;2023-04-26T10:17:08;5.10;;;0.70;;
12129;SDS011;6128;59.340;18.040;2023-04-26T10:19:36;2.20;;;0.40;;
12129;SDS011;6128;59.340;18.040;2023-04-26T10:22:04;3.50;;;0.57;;
12129;SDS011;6128;59.340;18.040;2023-04-26T10:24:37;4.90;;;0.60;;
12129;SDS011;6128;59.340;18.040;2023-04-26T10:27:05;0.40;;;0.20;;
12129;SDS011;6128;59.340;18.040;2023-04-26T10:32:35;3.30;;;0.20;;
12129;SDS011;6128;59.340;18.040;2023-04-26T10:36:03;1.73;;;0.20;;
12129;SDS011;6128;59.340;18.040;2023-04-26T10:38:36;1.37;;;0.27;;
12129;SDS011;6128;59.340;18.040;2023-04-26T10:47:06;3.00;;;0.20;;
12129;SDS011;6128;59.340;18.040;2023-04-26T10:49:46;0.37;;;0.10;;
12129;SDS011;6128;59.340;18.040;2023-04-26T10:52:13;0.60;;;0.30;;
12129;SDS011;6128;59.340;18.040;2023-04-26T10:54:44;2.60;;;0.30;;
12129;SDS011;6128;59.340;18.040;2023-04-26T10:57:22;0.20;;;0.10;;
12129;SDS011;6128;59.340;18.040;2023-04-26T11:00:16;1.43;;;0.30;;
12129;SDS011;6128;59.340;18.040;2023-04-26T11:05:52;0.20;;;0.10;;
12129;SDS011;6128;59.340;18.040;2023-04-26T11:08:22;3.70;;;0.43;;
12129;SDS011;6128;59.340;18.040;2023-04-26T11:10:52;2.70;;;0.30;;
12129;SDS011;6128;59.340;18.040;2023-04-26T11:13:35;2.60;;;0.20;;
12129;SDS011;6128;59.340;18.040;2023-04-26T11:16:04;3.70;;;0.57;;
12129;SDS011;6128;59.340;18.040;2023-04-26T11:18:32;9.00;;;1.33;;
12129;SDS011;6128;59.340;18.040;2023-04-26T11:21:00;4.37;;;0.30;;
12129;SDS011;6128;59.340;18.040;2023-04-26T11:23:29;2.33;;;0.90;;
12129;SDS011;6128;59.340;18.040;2023-04-26T11:25:57;0.23;;;0.10;;
12129;SDS011;6128;59.340;18.040;2023-04-26T11:28:27;0.50;;;0.30;;
12129;SDS011;6128;59.340;18.040;2023-04-26T11:30:57;2.83;;;0.60;;
12129;SDS011;6128;59.340;18.040;2023-04-26T11:33:25;11.23;;;1.47;;
12129;SDS011;6128;59.340;18.040;2023-04-26T11:35:52;6.10;;;1.30;;
12129;SDS011;6128;59.340;18.040;2023-04-26T11:38:21;0.83;;;0.43;;
12129;SDS011;6128;59.340;18.040;2023-04-26T11:40:52;1.83;;;0.20;;
12129;SDS011;6128;59.340;18.040;2023-04-26T11:43:20;0.80;;;0.20;;
12129;SDS011;6128;59.340;18.040;2023-04-26T11:45:47;2.33;;;1.10;;
12129;SDS011;6128;59.340;18.040;2023-04-26T11:48:16;4.07;;;0.50;;
12129;SDS011;6128;59.340;18.040;2023-04-26T11:50:44;1.17;;;0.30;;
12129;SDS011;6128;59.340;18.040;2023-04-26T11:53:11;4.97;;;0.60;;
12129;SDS011;6128;59.340;18.040;2023-04-26T11:55:38;0.63;;;0.30;;
12129;SDS011;6128;59.340;18.040;2023-04-26T11:58:09;0.70;;;0.10;;
12129;SDS011;6128;59.340;18.040;2023-04-26T12:03:27;0.77;;;0.30;;
12129;SDS011;6128;59.340;18.040;2023-04-26T12:05:55;2.70;;;0.20;;
12129;SDS011;6128;59.340;18.040;2023-04-26T12:08:25;0.40;;;0.20;;
12129;SDS011;6128;59.340;18.040;2023-04-26T12:10:53;1.30;;;0.40;;
12129;SDS011;6128;59.340;18.040;2023-04-26T12:13:24;2.73;;;0.30;;
12129;SDS011;6128;59.340;18.040;2023-04-26T12:15:51;1.20;;;0.37;;
12129;SDS011;6128;59.340;18.040;2023-04-26T12:18:18;0.37;;;0.20;;
12129;SDS011;6128;59.340;18.040;2023-04-26T12:20:47;1.33;;;0.20;;
12129;SDS011;6128;59.340;18.040;2023-04-26T12:23:14;5.77;;;1.00;;
12129;SDS011;6128;59.340;18.040;2023-04-26T12:25:50;5.70;;;0.83;;
12129;SDS011;6128;59.340;18.040;2023-04-26T12:28:19;0.40;;;0.20;;
12129;SDS011;6128;59.340;18.040;2023-04-26T12:30:46;0.80;;;0.50;;
12129;SDS011;6128;59.340;18.040;2023-04-26T12:33:14;2.90;;;0.23;;
12129;SDS011;6128;59.340;18.040;2023-04-26T12:35:43;1.90;;;0.60;;
12129;SDS011;6128;59.340;18.040;2023-04-26T12:38:13;14.50;;;2.17;;
12129;SDS011;6128;59.340;18.040;2023-04-26T12:40:41;0.97;;;0.20;;
12129;SDS011;6128;59.340;18.040;2023-04-26T12:43:08;3.90;;;0.87;;
12129;SDS011;6128;59.340;18.040;2023-04-26T12:45:35;0.50;;;0.30;;
12129;SDS011;6128;59.340;18.040;2023-04-26T12:48:03;2.73;;;0.30;;
12129;SDS011;6128;59.340;18.040;2023-04-26T12:50:30;2.30;;;0.30;;
12129;SDS011;6128;59.340;18.040;2023-04-26T12:52:58;1.90;;;0.30;;
12129;SDS011;6128;59.340;18.040;2023-04-26T12:55:26;0.73;;;0.30;;
12129;SDS011;6128;59.340;18.040;2023-04-26T12:57:53;0.43;;;0.20;;
12129;SDS011;6128;59.340;18.040;2023-04-26T13:00:22;3.87;;;0.40;;
12129;SDS011;6128;59.340;18.040;2023-04-26T13:02:50;0.30;;;0.30;;
12129;SDS011;6128;59.340;18.040;2023-04-26T13:05:17;3.33;;;0.50;;
12129;SDS011;6128;59.340;18.040;2023-04-26T13:07:44;2.97;;;0.50;;
12129;SDS011;6128;59.340;18.040;2023-04-26T13:10:12;2.63;;;0.50;;
12129;SDS011;6128;59.340;18.040;2023-04-26T13:12:41;1.00;;;0.50;;
12129;SDS011;6128;59.340;18.040;2023-04-26T13:15:08;3.17;;;0.60;;
12129;SDS011;6128;59.340;18.040;2023-04-26T13:17:36;6.40;;;0.70;;
12129;SDS011;6128;59.340;18.040;2023-04-26T13:20:04;2.67;;;0.40;;
12129;SDS011;6128;59.340;18.040;2023-04-26T13:22:32;6.60;;;1.10;;
12129;SDS011;6128;59.340;18.040;2023-04-26T13:25:00;2.77;;;0.50;;
12129;SDS011;6128;59.340;18.040;2023-04-26T13:27:27;2.80;;;0.30;;
12129;SDS011;6128;59.340;18.040;2023-04-26T13:29:56;1.37;;;0.57;;
12129;SDS011;6128;59.340;18.040;2023-04-26T13:32:23;2.57;;;0.67;;
12129;SDS011;6128;59.340;18.040;2023-04-26T13:34:50;3.03;;;0.23;;
12129;SDS011;6128;59.340;18.040;2023-04-26T13:37:18;0.43;;;0.40;;
12129;SDS011;6128;59.340;18.040;2023-04-26T13:39:45;4.10;;;1.13;;
12129;SDS011;6128;59.340;18.040;2023-04-26T13:42:13;0.40;;;0.30;;
12129;SDS011;6128;59.340;18.040;2023-04-26T13:44:40;1.87;;;0.40;;
12129;SDS011;6128;59.340;18.040;2023-04-26T13:47:09;1.00;;;0.40;;
12129;SDS011;6128;59.340;18.040;2023-04-26T13:49:37;1.03;;;0.70;;
12129;SDS011;6128;59.340;18.040;2023-04-26T13:52:05;1.40;;;0.50;;
12129;SDS011;6128;59.340;18.040;2023-04-26T13:54:32;0.40;;;0.27;;
12129;SDS011;6128;59.340;18.040;2023-04-26T13:57:00;2.10;;;0.57;;
12129;SDS011;6128;59.340;18.040;2023-04-26T13:59:28;3.03;;;0.50;;
12129;SDS011;6128;59.340;18.040;2023-04-26T14:01:55;2.93;;;0.53;;
12129;SDS011;6128;59.340;18.040;2023-04-26T14:04:23;2.93;;;0.70;;
12129;SDS011;6128;59.340;18.040;2023-04-26T14:06:51;1.77;;;0.43;;
12129;SDS011;6128;59.340;18.040;2023-04-26T14:09:18;2.07;;;0.40;;
12129;SDS011;6128;59.340;18.040;2023-04-26T14:11:45;2.27;;;0.60;;
12129;SDS011;6128;59.340;18.040;2023-04-26T14:14:12;2.87;;;0.60;;
12129;SDS011;6128;59.340;18.040;2023-04-26T14:16:39;6.23;;;1.10;;
12129;SDS011;6128;59.340;18.040;2023-04-26T14:19:06;3.10;;;0.60;;
12129;SDS011;6128;59.340;18.040;2023-04-26T14:21:35;1.27;;;0.43;;
12129;SDS011;6128;59.340;18.040;2023-04-26T14:24:02;1.43;;;0.30;;
12129;SDS011;6128;59.340;18.040;2023-04-26T14:26:30;1.73;;;0.37;;
12129;SDS011;6128;59.340;18.040;2023-04-26T14:28:57;3.97;;;0.70;;
12129;SDS011;6128;59.340;18.040;2023-04-26T14:31:25;1.13;;;0.40;;
12129;SDS011;6128;59.340;18.040;2023-04-26T14:33:52;2.67;;;0.60;;
12129;SDS011;6128;59.340;18.040;2023-04-26T14:36:20;2.53;;;0.40;;
12129;SDS011;6128;59.340;18.040;2023-04-26T14:38:49;17.80;;;1.63;;
12129;SDS011;6128;59.340;18.040;2023-04-26T14:41:16;3.80;;;0.30;;
12129;SDS011;6128;59.340;18.040;2023-04-26T14:43:45;1.77;;;0.50;;
12129;SDS011;6128;59.340;18.040;2023-04-26T14:46:12;1.13;;;0.70;;
12129;SDS011;6128;59.340;18.040;2023-04-26T14:48:40;0.97;;;0.33;;
12129;SDS011;6128;59.340;18.040;2023-04-26T14:51:08;6.37;;;0.50;;
12129;SDS011;6128;59.340;18.040;2023-04-26T14:53:36;5.03;;;1.00;;
12129;SDS011;6128;59.340;18.040;2023-04-26T14:56:05;4.83;;;0.70;;
12129;SDS011;6128;59.340;18.040;2023-04-26T14:58:33;0.93;;;0.30;;
12129;SDS011;6128;59.340;18.040;2023-04-26T15:01:00;2.53;;;0.47;;
12129;SDS011;6128;59.340;18.040;2023-04-26T15:03:28;3.77;;;0.57;;